Time;durP1;ratioP1;P1;durP2;ratioP2;P2;SDS_P1;SDS_P2;PMS_P1;PMS_P2;Temp;Humidity;BMP_temperature;BMP_pressure;BME280_temperature;BME280_humidity;BME280_pressure;Samples;Min_cycle;Max_cycle;Signal;HPM_P1;HPM_P2
2023/11/07 00:00:28;;;;;;;6.53;1.73;;;10.10;73.10;;;;;;5039366;28;20049;-92
2023/11/07 00:02:55;;;;;;;5.63;1.58;;;10.10;73.40;;;;;;5071824;28;20152;-92
2023/11/07 00:05:23;;;;;;;5.30;1.83;;;10.00;73.50;;;;;;5055324;28;20048;-92
2023/11/07 00:07:50;;;;;;;5.07;1.20;;;10.10;73.50;;;;;;5055380;28;20056;-93
2023/11/07 00:10:17;;;;;;;3.60;1.48;;;10.10;73.70;;;;;;5038567;28;20114;-92
2023/11/07 00:12:44;;;;;;;7.03;1.48;;;10.00;73.80;;;;;;5038911;28;20037;-92
2023/11/07 00:15:11;;;;;;;6.20;1.40;;;10.00;73.80;;;;;;5038930;28;20048;-91
2023/11/07 00:17:38;;;;;;;5.63;1.53;;;10.10;74.00;;;;;;5042481;28;20049;-92
2023/11/07 00:20:08;;;;;;;6.57;1.52;;;10.00;74.30;;;;;;5034365;28;20059;-92
2023/11/07 00:22:35;;;;;;;6.78;1.38;;;10.00;74.40;;;;;;5029324;28;20053;-91
2023/11/07 00:25:04;;;;;;;6.47;1.40;;;10.00;74.50;;;;;;5054649;28;20052;-92
2023/11/07 00:27:31;;;;;;;6.45;1.88;;;10.00;74.60;;;;;;5054541;28;20144;-92
2023/11/07 00:29:58;;;;;;;5.43;1.50;;;10.00;74.50;;;;;;5054897;28;20040;-91
2023/11/07 00:32:25;;;;;;;6.10;1.42;;;10.00;74.80;;;;;;5054523;28;20047;-92
2023/11/07 00:34:52;;;;;;;7.93;2.20;;;9.90;74.90;;;;;;5037677;28;20441;-92
2023/11/07 00:37:19;;;;;;;5.00;1.23;;;9.90;75.10;;;;;;5054651;28;20075;-92
2023/11/07 00:39:46;;;;;;;6.65;1.30;;;9.90;75.20;;;;;;5034669;28;20103;-92
2023/11/07 00:42:13;;;;;;;3.53;1.30;;;10.00;75.20;;;;;;5034736;28;20054;-92
2023/11/07 00:44:40;;;;;;;5.60;1.25;;;10.00;75.30;;;;;;5034601;28;20526;-92
2023/11/07 00:47:08;;;;;;;6.25;1.40;;;9.90;75.40;;;;;;5037728;28;20107;-92
2023/11/07 00:49:35;;;;;;;5.60;1.63;;;9.90;75.60;;;;;;5054192;28;20045;-92
2023/11/07 00:52:02;;;;;;;5.38;1.52;;;9.90;75.70;;;;;;5054336;28;20057;-92
2023/11/07 00:54:29;;;;;;;5.53;1.80;;;9.90;75.70;;;;;;5037772;28;20449;-91
2023/11/07 00:56:56;;;;;;;4.47;1.00;;;9.90;75.80;;;;;;5049006;28;20060;-92
2023/11/07 00:59:23;;;;;;;4.05;1.75;;;9.90;75.90;;;;;;5064759;28;20045;-91
2023/11/07 01:01:50;;;;;;;4.40;1.40;;;9.90;75.90;;;;;;5053964;28;20135;-91
2023/11/07 01:04:17;;;;;;;8.88;1.77;;;9.90;75.70;;;;;;5054223;28;20143;-92
2023/11/07 01:06:44;;;;;;;4.67;1.70;;;10.00;75.50;;;;;;5053892;28;20144;-92
2023/11/07 01:09:12;;;;;;;5.65;1.50;;;9.90;75.50;;;;;;5053991;28;20135;-92
2023/11/07 01:11:39;;;;;;;6.07;1.67;;;9.90;75.60;;;;;;5037597;28;20499;-92
2023/11/07 01:14:07;;;;;;;6.43;2.08;;;9.90;75.60;;;;;;5053758;28;20494;-91
2023/11/07 01:16:34;;;;;;;8.63;1.85;;;9.80;75.90;;;;;;5044249;28;20067;-91
2023/11/07 01:19:01;;;;;;;5.87;1.50;;;9.90;75.90;;;;;;5053624;28;20098;-91
2023/11/07 01:21:28;;;;;;;6.97;2.03;;;9.90;75.70;;;;;;5044368;28;20051;-91
2023/11/07 01:23:55;;;;;;;7.70;1.70;;;9.90;75.90;;;;;;5041752;28;20076;-92
2023/11/07 01:26:22;;;;;;;6.43;1.90;;;9.80;76.00;;;;;;5070707;28;20049;-91
2023/11/07 01:28:49;;;;;;;7.22;2.08;;;9.70;76.20;;;;;;5053652;28;20037;-91
2023/11/07 01:31:17;;;;;;;8.20;1.67;;;9.70;76.30;;;;;;5053426;28;20037;-91
2023/11/07 01:33:44;;;;;;;7.40;1.70;;;9.60;76.50;;;;;;5053831;28;20037;-92
2023/11/07 01:36:11;;;;;;;9.32;2.30;;;9.60;76.50;;;;;;5053941;28;20041;-91
2023/11/07 01:38:38;;;;;;;8.23;2.10;;;9.70;76.50;;;;;;5053639;28;20052;-91
2023/11/07 01:41:05;;;;;;;5.53;1.73;;;9.60;76.40;;;;;;5053459;28;20478;-91
2023/11/07 01:43:32;;;;;;;5.83;1.60;;;9.60;76.60;;;;;;5053699;28;20048;-89
2023/11/07 01:46:02;;;;;;;6.95;2.03;;;9.60;76.60;;;;;;5045390;28;20049;-91
2023/11/07 01:48:30;;;;;;;5.72;1.90;;;9.70;76.40;;;;;;5052976;28;20548;-91
2023/11/07 01:50:58;;;;;;;8.35;1.80;;;9.70;76.40;;;;;;5053598;28;20041;-91
2023/11/07 01:53:28;;;;;;;9.18;2.13;;;9.80;76.10;;;;;;5034318;28;20103;-91
2023/11/07 01:55:57;;;;;;;6.73;2.10;;;9.80;76.00;;;;;;5037633;28;20041;-91
2023/11/07 01:58:24;;;;;;;8.00;2.30;;;9.70;76.20;;;;;;5046952;28;20049;-91
2023/11/07 02:00:54;;;;;;;8.73;2.38;;;9.70;76.30;;;;;;5036870;28;20044;-90
2023/11/07 02:03:28;;;;;;;7.82;2.42;;;9.70;76.30;;;;;;5053053;28;20049;-90
2023/11/07 02:05:55;;;;;;;7.53;2.67;;;9.70;76.50;;;;;;5053178;28;20105;-91
2023/11/07 02:08:24;;;;;;;10.53;3.27;;;9.70;76.40;;;;;;5038196;28;20100;-91
2023/11/07 02:10:52;;;;;;;9.02;3.00;;;9.60;77.10;;;;;;5068603;28;20040;-91
2023/11/07 02:13:19;;;;;;;9.13;2.70;;;9.70;76.90;;;;;;5053498;28;20037;-91
2023/11/07 02:15:46;;;;;;;11.05;3.28;;;9.70;76.80;;;;;;5036677;28;20088;-91
2023/11/07 02:18:13;;;;;;;9.77;3.35;;;9.80;76.40;;;;;;5036288;28;20049;-91
2023/11/07 02:20:40;;;;;;;12.13;3.80;;;9.80;76.00;;;;;;5053186;28;20045;-91
2023/11/07 02:23:34;;;;;;;11.88;3.10;;;9.90;75.70;;;;;;5052736;28;20045;-92
2023/11/07 02:26:01;;;;;;;8.40;2.30;;;9.90;75.80;;;;;;5034550;28;20499;-91
2023/11/07 02:28:28;;;;;;;9.63;3.17;;;9.90;76.00;;;;;;5044683;28;20051;-91
2023/11/07 02:30:56;;;;;;;11.05;3.10;;;9.90;75.90;;;;;;5052665;28;20099;-91
2023/11/07 02:33:24;;;;;;;9.23;3.07;;;9.90;75.90;;;;;;5036506;28;20041;-91
2023/11/07 02:35:51;;;;;;;11.55;3.65;;;9.90;75.90;;;;;;5052728;28;20071;-91
2023/11/07 02:38:19;;;;;;;10.90;3.28;;;10.00;75.90;;;;;;5047559;28;20516;-91
2023/11/07 02:40:49;;;;;;;10.15;3.28;;;9.90;76.00;;;;;;5053222;28;20115;-91
2023/11/07 02:43:16;;;;;;;8.45;3.20;;;9.90;76.30;;;;;;5055408;28;20062;-91
2023/11/07 02:45:44;;;;;;;9.90;3.20;;;9.90;76.50;;;;;;5056453;28;20048;-92
2023/11/07 02:48:11;;;;;;;8.52;3.05;;;9.90;76.60;;;;;;5056183;28;20064;-92
2023/11/07 02:50:39;;;;;;;10.30;3.03;;;9.90;76.60;;;;;;5056698;28;20037;-91
2023/11/07 02:53:06;;;;;;;8.05;3.05;;;9.90;76.50;;;;;;5036797;28;20049;-92
2023/11/07 02:55:33;;;;;;;9.40;3.45;;;9.90;76.50;;;;;;5039705;28;20037;-92
2023/11/07 02:58:00;;;;;;;8.70;2.67;;;9.90;76.50;;;;;;5056295;28;20049;-91
2023/11/07 03:00:27;;;;;;;6.72;1.90;;;9.90;76.30;;;;;;5039524;28;20565;-92
2023/11/07 03:02:55;;;;;;;10.00;3.00;;;9.90;76.00;;;;;;5039894;28;20036;-91
2023/11/07 03:05:22;;;;;;;7.88;2.25;;;9.80;76.20;;;;;;5040921;28;20567;-91
2023/11/07 03:07:49;;;;;;;6.65;2.40;;;9.80;76.50;;;;;;5055963;28;20041;-91
2023/11/07 03:10:16;;;;;;;5.00;2.23;;;9.80;76.50;;;;;;5047996;28;20104;-91
2023/11/07 03:12:47;;;;;;;8.45;2.22;;;9.90;76.20;;;;;;5056009;28;20037;-91
2023/11/07 03:15:14;;;;;;;6.15;2.58;;;9.90;76.00;;;;;;5048249;28;20127;-92
2023/11/07 03:17:42;;;;;;;9.05;2.85;;;9.90;76.00;;;;;;5056469;28;20072;-91
2023/11/07 03:20:09;;;;;;;8.38;2.90;;;9.90;76.10;;;;;;5056447;28;20049;-92
2023/11/07 03:22:36;;;;;;;9.13;2.90;;;9.90;76.30;;;;;;5056057;28;20080;-92
2023/11/07 03:25:04;;;;;;;8.90;2.97;;;10.00;76.30;;;;;;5040045;28;20498;-92
2023/11/07 03:27:31;;;;;;;8.93;3.25;;;9.90;76.50;;;;;;5055770;28;20080;-92
2023/11/07 03:29:58;;;;;;;11.30;3.80;;;10.00;76.50;;;;;;5042750;28;20033;-91
2023/11/07 03:32:25;;;;;;;11.15;3.75;;;9.90;76.70;;;;;;5033074;28;20040;-91
2023/11/07 03:34:52;;;;;;;9.70;2.80;;;10.00;76.70;;;;;;5055409;28;20041;-92
2023/11/07 03:37:19;;;;;;;7.05;2.50;;;10.00;76.60;;;;;;5055522;28;20064;-92
2023/11/07 03:39:47;;;;;;;6.93;2.13;;;10.00;76.60;;;;;;5049099;28;20033;-92
2023/11/07 03:42:15;;;;;;;8.13;2.13;;;10.00;76.60;;;;;;5055329;28;20044;-90
2023/11/07 03:44:42;;;;;;;6.65;1.83;;;10.00;76.50;;;;;;5035493;28;20564;-94
2023/11/07 03:47:09;;;;;;;8.87;2.10;;;10.00;76.50;;;;;;5055380;28;20049;-92
2023/11/07 03:49:36;;;;;;;7.30;2.67;;;10.00;76.50;;;;;;5055563;28;20170;-92
2023/11/07 03:52:04;;;;;;;7.47;2.20;;;10.00;76.50;;;;;;5055851;28;20045;-92
2023/11/07 03:54:31;;;;;;;9.20;2.58;;;9.90;76.70;;;;;;5039163;28;20037;-92
2023/11/07 03:56:59;;;;;;;10.63;3.42;;;10.00;76.70;;;;;;5055392;28;20040;-92
2023/11/07 03:59:26;;;;;;;8.37;2.90;;;10.00;76.80;;;;;;5055078;28;20044;-91
2023/11/07 04:01:55;;;;;;;9.95;3.47;;;9.90;77.00;;;;;;5037160;28;20111;-91
2023/11/07 04:04:23;;;;;;;9.57;3.00;;;9.90;77.20;;;;;;5071975;28;20067;-91
2023/11/07 04:06:50;;;;;;;8.30;2.25;;;9.90;77.10;;;;;;5038835;28;20383;-92
2023/11/07 04:09:18;;;;;;;10.65;2.38;;;9.90;77.10;;;;;;5055052;28;20045;-91
2023/11/07 04:11:45;;;;;;;8.17;2.20;;;9.80;77.10;;;;;;5055052;28;20513;-91
2023/11/07 04:14:17;;;;;;;8.70;3.08;;;9.90;77.10;;;;;;5054971;28;20041;-92
2023/11/07 04:16:44;;;;;;;6.30;2.40;;;9.80;77.10;;;;;;5055334;28;20525;-91
2023/11/07 04:19:12;;;;;;;8.85;2.00;;;9.90;77.10;;;;;;5038536;28;20055;-91
2023/11/07 04:21:39;;;;;;;9.57;2.83;;;9.90;76.90;;;;;;5038622;28;20084;-91
2023/11/07 04:24:06;;;;;;;11.27;3.27;;;9.80;76.90;;;;;;5038523;28;20055;-92
2023/11/07 04:26:33;;;;;;;7.72;2.03;;;9.80;76.90;;;;;;5055011;28;20120;-91
2023/11/07 04:29:00;;;;;;;7.25;1.52;;;9.80;76.80;;;;;;5045242;28;20479;-91
2023/11/07 04:31:28;;;;;;;10.50;2.13;;;9.80;76.60;;;;;;5054748;28;20061;-91
2023/11/07 04:33:55;;;;;;;7.82;2.00;;;9.90;76.50;;;;;;5038416;28;20049;-92
2023/11/07 04:36:22;;;;;;;7.40;2.43;;;9.90;76.30;;;;;;5038086;28;20087;-91
2023/11/07 04:38:50;;;;;;;9.38;2.00;;;9.90;76.20;;;;;;5038279;28;20037;-92
2023/11/07 04:41:17;;;;;;;8.68;1.92;;;9.90;76.20;;;;;;5054826;28;20056;-92
2023/11/07 04:43:44;;;;;;;8.13;2.00;;;10.00;75.90;;;;;;5035271;28;20049;-89
2023/11/07 04:46:12;;;;;;;11.70;2.83;;;10.00;75.50;;;;;;5037371;28;20041;-90
2023/11/07 04:48:39;;;;;;;8.83;2.17;;;10.00;75.40;;;;;;5036571;28;20056;-89
2023/11/07 04:51:07;;;;;;;9.52;2.30;;;10.00;75.30;;;;;;5053973;28;20053;-90
2023/11/07 04:53:36;;;;;;;7.55;1.88;;;10.00;75.00;;;;;;5046847;28;20076;-90
2023/11/07 04:56:04;;;;;;;8.68;2.08;;;10.00;75.00;;;;;;5037481;28;20083;-91
2023/11/07 04:58:32;;;;;;;6.45;1.95;;;10.00;74.90;;;;;;5037955;28;20055;-91
2023/11/07 05:00:59;;;;;;;9.87;2.10;;;10.00;74.70;;;;;;5053664;28;20048;-94
2023/11/07 05:03:26;;;;;;;7.20;1.40;;;9.90;74.80;;;;;;5053499;28;20053;-91
2023/11/07 05:06:05;;;;;;;8.13;1.90;;;9.90;75.10;;;;;;5044396;28;20055;-90
2023/11/07 05:08:32;;;;;;;8.27;1.73;;;10.00;75.30;;;;;;5036928;28;20103;-90
2023/11/07 05:10:59;;;;;;;11.07;2.03;;;10.00;74.90;;;;;;5035765;28;20052;-90
2023/11/07 05:13:27;;;;;;;5.50;1.80;;;10.00;74.80;;;;;;5044629;28;20036;-90
2023/11/07 05:15:55;;;;;;;7.63;1.60;;;10.00;74.80;;;;;;5052438;28;20383;-90
2023/11/07 05:18:22;;;;;;;8.43;1.70;;;9.90;74.80;;;;;;5053046;28;20045;-90
2023/11/07 05:20:50;;;;;;;9.52;2.28;;;9.90;74.80;;;;;;5053140;28;20095;-90
2023/11/07 05:23:19;;;;;;;8.57;2.58;;;9.90;74.70;;;;;;5046103;28;20486;-90
2023/11/07 05:25:46;;;;;;;7.90;2.13;;;9.80;75.30;;;;;;5053018;28;20135;-90
2023/11/07 05:28:13;;;;;;;10.32;2.75;;;9.70;75.30;;;;;;5036579;28;20044;-90
2023/11/07 05:30:40;;;;;;;9.68;3.22;;;9.70;75.40;;;;;;5052835;28;20048;-90
2023/11/07 05:33:07;;;;;;;9.93;2.90;;;9.70;75.80;;;;;;5036264;28;20114;-90
2023/11/07 05:35:34;;;;;;;7.82;2.55;;;9.60;76.00;;;;;;5052800;28;20445;-91
2023/11/07 05:38:01;;;;;;;10.27;2.30;;;9.60;75.90;;;;;;5036654;28;20072;-90
2023/11/07 05:40:28;;;;;;;9.23;1.98;;;9.60;76.10;;;;;;5052766;28;20045;-90
2023/11/07 05:42:56;;;;;;;6.68;1.90;;;9.60;76.00;;;;;;5046106;28;20052;-90
2023/11/07 05:45:25;;;;;;;6.80;1.58;;;9.60;75.70;;;;;;5052850;28;20140;-90
2023/11/07 05:47:52;;;;;;;5.15;1.77;;;9.50;75.70;;;;;;5052646;28;20053;-90
2023/11/07 05:50:25;;;;;;;7.33;2.07;;;9.50;75.80;;;;;;5053089;28;20103;-90
2023/11/07 05:52:52;;;;;;;8.65;1.52;;;9.40;76.20;;;;;;5052254;28;20049;-90
2023/11/07 05:55:21;;;;;;;7.70;1.75;;;9.30;76.30;;;;;;5053006;28;20045;-90
2023/11/07 05:57:48;;;;;;;7.68;1.88;;;9.30;76.60;;;;;;5052888;28;20498;-90
2023/11/07 06:00:15;;;;;;;5.82;1.38;;;9.30;76.50;;;;;;5053171;28;20049;-90
2023/11/07 06:02:42;;;;;;;8.70;1.60;;;9.40;76.30;;;;;;5036064;28;20045;-91
2023/11/07 06:05:10;;;;;;;5.35;1.45;;;9.40;76.00;;;;;;5036448;28;20056;-90
2023/11/07 06:07:38;;;;;;;6.55;1.48;;;9.30;76.00;;;;;;5052632;28;20041;-90
2023/11/07 06:10:05;;;;;;;7.85;1.80;;;9.30;76.10;;;;;;5036225;28;20045;-90
2023/11/07 06:12:33;;;;;;;7.43;1.85;;;9.40;75.80;;;;;;5052438;28;20069;-89
2023/11/07 06:15:00;;;;;;;8.80;2.53;;;9.30;75.90;;;;;;5045987;28;20438;-90
2023/11/07 06:17:27;;;;;;;8.75;1.90;;;9.30;76.30;;;;;;5054050;28;20123;-89
2023/11/07 06:19:54;;;;;;;6.97;1.70;;;9.30;76.60;;;;;;5039502;28;20162;-90
2023/11/07 06:22:21;;;;;;;14.00;1.90;;;9.30;76.80;;;;;;5056336;28;20049;-90
2023/11/07 06:24:48;;;;;;;8.02;1.65;;;9.20;77.20;;;;;;5055689;28;20144;-90
2023/11/07 06:27:15;;;;;;;8.30;2.30;;;9.20;77.60;;;;;;5055950;28;20128;-90
2023/11/07 06:29:43;;;;;;;6.93;1.67;;;9.10;77.70;;;;;;5039665;28;20095;-90
2023/11/07 06:32:10;;;;;;;6.93;1.90;;;9.10;77.90;;;;;;5054802;28;20033;-90
2023/11/07 06:34:37;;;;;;;8.20;2.20;;;9.10;78.10;;;;;;5056230;28;20044;-90
2023/11/07 06:37:05;;;;;;;7.07;2.03;;;9.00;78.40;;;;;;5056138;28;20041;-90
2023/11/07 06:39:32;;;;;;;8.73;2.20;;;9.10;78.50;;;;;;5043695;28;20487;-90
2023/11/07 06:41:59;;;;;;;6.70;1.83;;;9.10;78.50;;;;;;5056253;28;20080;-90
2023/11/07 06:44:26;;;;;;;10.80;3.03;;;9.20;78.50;;;;;;5038930;28;20076;-90
2023/11/07 06:46:54;;;;;;;9.10;2.45;;;9.30;78.30;;;;;;5055447;28;20374;-90
2023/11/07 06:49:21;;;;;;;8.48;2.33;;;9.20;78.40;;;;;;5041175;28;20032;-90
2023/11/07 06:51:49;;;;;;;7.50;2.43;;;9.30;78.50;;;;;;5055518;28;20068;-90
2023/11/07 06:54:16;;;;;;;9.10;2.40;;;9.40;78.20;;;;;;5037464;28;20037;-89
2023/11/07 06:56:44;;;;;;;11.48;3.20;;;9.40;78.00;;;;;;5055459;28;20067;-89
2023/11/07 06:59:11;;;;;;;8.13;2.50;;;9.50;77.70;;;;;;5055428;28;20074;-90
2023/11/07 07:01:38;;;;;;;8.55;3.00;;;9.50;77.70;;;;;;5055950;28;20048;-89
2023/11/07 07:04:05;;;;;;;7.30;2.60;;;9.50;77.40;;;;;;5045481;28;20045;-90
2023/11/07 07:06:35;;;;;;;7.97;2.70;;;9.70;77.10;;;;;;5039312;28;20140;-90
2023/11/07 07:09:04;;;;;;;8.05;2.63;;;9.70;76.70;;;;;;5040166;28;20089;-90
2023/11/07 07:11:32;;;;;;;7.65;2.50;;;9.80;76.50;;;;;;5038721;28;20048;-89
2023/11/07 07:13:59;;;;;;;10.15;2.60;;;9.90;76.20;;;;;;5055487;28;20049;-89
2023/11/07 07:16:30;;;;;;;10.33;3.33;;;10.00;75.90;;;;;;5039315;28;20045;-89
2023/11/07 07:18:57;;;;;;;9.55;3.25;;;10.00;75.70;;;;;;5055413;28;20048;-90
2023/11/07 07:21:25;;;;;;;10.20;3.00;;;10.00;75.60;;;;;;5045505;28;20100;-90
2023/11/07 07:23:52;;;;;;;12.07;3.20;;;10.10;75.40;;;;;;5051604;28;20498;-90
2023/11/07 07:26:22;;;;;;;9.50;3.05;;;10.20;75.30;;;;;;5038027;28;20041;-90
2023/11/07 07:28:52;;;;;;;9.33;3.53;;;10.20;74.80;;;;;;5055156;28;20069;-90
2023/11/07 07:31:27;;;;;;;11.20;3.78;;;10.40;74.50;;;;;;5038788;28;20045;-90
2023/11/07 07:33:56;;;;;;;12.60;2.90;;;10.40;74.20;;;;;;5055382;28;20048;-90
2023/11/07 07:36:24;;;;;;;10.68;2.60;;;10.50;74.30;;;;;;5049744;28;20049;-90
2023/11/07 07:38:52;;;;;;;9.20;3.30;;;10.50;74.40;;;;;;5047400;28;20445;-90
2023/11/07 07:41:22;;;;;;;9.03;3.00;;;10.60;74.30;;;;;;5055346;28;20052;-90
2023/11/07 07:43:49;;;;;;;9.95;3.05;;;10.70;73.30;;;;;;5045513;28;20406;-90
2023/11/07 07:46:17;;;;;;;8.07;2.15;;;10.80;72.90;;;;;;5071611;28;20045;-90
2023/11/07 07:48:45;;;;;;;6.88;2.17;;;10.90;72.10;;;;;;5041345;28;20049;-90
2023/11/07 07:51:14;;;;;;;7.47;2.22;;;11.00;71.20;;;;;;5038871;28;20044;-90
2023/11/07 07:53:42;;;;;;;7.87;1.83;;;11.00;70.60;;;;;;5050728;28;20124;-90
2023/11/07 07:56:13;;;;;;;12.65;2.70;;;11.10;69.90;;;;;;5055368;28;20521;-90
2023/11/07 07:58:42;;;;;;;9.82;2.72;;;11.20;70.10;;;;;;5054743;28;20045;-90
2023/11/07 08:01:09;;;;;;;12.32;1.98;;;11.30;70.00;;;;;;5055114;28;20128;-90
2023/11/07 08:03:38;;;;;;;10.38;1.38;;;11.30;69.50;;;;;;5054639;28;20491;-91
2023/11/07 08:06:06;;;;;;;6.60;1.10;;;11.40;68.00;;;;;;5054793;28;20041;-90
2023/11/07 08:08:33;;;;;;;1.63;0.50;;;11.50;67.40;;;;;;5054545;28;20040;-90
2023/11/07 08:11:01;;;;;;;2.95;0.40;;;11.50;65.20;;;;;;5038141;28;20061;-90
2023/11/07 08:13:30;;;;;;;11.93;4.45;;;11.50;65.10;;;;;;5054535;28;20075;-90
2023/11/07 08:15:57;;;;;;;4.53;1.30;;;11.50;63.50;;;;;;5052986;28;20052;-90
2023/11/07 08:18:24;;;;;;;3.07;0.53;;;11.50;62.70;;;;;;5054601;28;20132;-90
2023/11/07 08:20:51;;;;;;;4.72;0.60;;;11.60;62.80;;;;;;5037920;28;20076;-90
2023/11/07 08:23:18;;;;;;;2.17;0.77;;;11.60;62.20;;;;;;5043003;28;20621;-90
2023/11/07 08:25:45;;;;;;;4.60;0.55;;;11.60;61.60;;;;;;5040422;28;20047;-90
2023/11/07 08:28:13;;;;;;;2.47;0.57;;;11.80;62.40;;;;;;5071020;28;20072;-90
2023/11/07 08:30:43;;;;;;;2.73;0.70;;;11.90;63.20;;;;;;5039228;28;20040;-90
2023/11/07 08:33:12;;;;;;;6.53;0.63;;;11.90;62.60;;;;;;5053866;28;20486;-90
2023/11/07 08:35:40;;;;;;;7.07;0.50;;;12.00;62.60;;;;;;5037900;28;20040;-91
2023/11/07 08:38:07;;;;;;;1.95;0.40;;;12.00;62.10;;;;;;5053886;28;20073;-91
2023/11/07 08:40:35;;;;;;;2.40;0.45;;;12.00;60.80;;;;;;5042556;28;20053;-91
2023/11/07 08:43:03;;;;;;;3.27;0.40;;;12.10;61.70;;;;;;5068615;28;20044;-90
2023/11/07 08:45:32;;;;;;;3.70;0.50;;;12.10;61.80;;;;;;5054079;28;20041;-91
2023/11/07 08:48:00;;;;;;;3.08;0.50;;;12.10;60.90;;;;;;5034412;28;20144;-91
2023/11/07 08:50:28;;;;;;;2.78;0.50;;;12.10;60.70;;;;;;5036680;28;20037;-91
2023/11/07 08:52:57;;;;;;;4.10;0.45;;;12.10;61.20;;;;;;5054076;28;20570;-91
2023/11/07 08:55:25;;;;;;;3.47;0.60;;;12.20;61.50;;;;;;5054141;28;20063;-91
2023/11/07 08:57:53;;;;;;;8.18;3.15;;;12.20;60.00;;;;;;5037546;28;20045;-91
2023/11/07 09:00:24;;;;;;;7.80;1.77;;;12.20;60.80;;;;;;5053565;28;20556;-92
2023/11/07 09:02:53;;;;;;;2.88;0.68;;;12.20;60.40;;;;;;5054121;28;20565;-90
2023/11/07 09:05:21;;;;;;;5.53;0.60;;;12.20;60.40;;;;;;5037493;28;20081;-91
2023/11/07 09:07:49;;;;;;;3.43;0.57;;;12.20;60.00;;;;;;5054399;28;20045;-92
2023/11/07 09:10:16;;;;;;;3.53;0.70;;;12.30;60.70;;;;;;5053851;28;20037;-92
2023/11/07 09:12:43;;;;;;;3.78;0.50;;;12.40;59.70;;;;;;5037586;28;20526;-92
2023/11/07 09:15:11;;;;;;;2.65;0.50;;;12.40;58.60;;;;;;5045663;28;20049;-92
2023/11/07 09:17:39;;;;;;;3.25;0.60;;;12.50;59.10;;;;;;5053904;28;20079;-91
2023/11/07 09:20:17;;;;;;;2.17;0.43;;;12.40;58.80;;;;;;5053534;28;20053;-91
2023/11/07 09:22:44;;;;;;;3.50;0.60;;;12.50;58.90;;;;;;5053447;28;20376;-91
2023/11/07 09:25:12;;;;;;;4.57;0.60;;;12.50;58.90;;;;;;5036894;28;20495;-92
2023/11/07 09:27:39;;;;;;;3.65;0.70;;;12.50;59.00;;;;;;5053151;28;20045;-91
2023/11/07 09:30:09;;;;;;;3.53;0.63;;;12.50;59.30;;;;;;5038090;28;20103;-90
2023/11/07 09:32:38;;;;;;;4.23;0.53;;;12.50;57.20;;;;;;5053369;28;20045;-91
2023/11/07 09:35:09;;;;;;;3.13;0.55;;;12.50;57.80;;;;;;5034313;28;20041;-91
2023/11/07 09:37:39;;;;;;;4.97;0.70;;;12.50;57.60;;;;;;5036533;28;20087;-91
2023/11/07 09:40:17;;;;;;;3.40;0.50;;;12.50;57.90;;;;;;5053019;28;20178;-90
2023/11/07 09:42:50;;;;;;;6.85;0.70;;;12.50;58.40;;;;;;5053055;28;20060;-92
2023/11/07 09:45:19;;;;;;;3.77;0.60;;;12.60;58.30;;;;;;5044111;28;20045;-93
2023/11/07 09:47:47;;;;;;;3.50;0.40;;;12.70;57.70;;;;;;5036806;28;20119;-92
2023/11/07 09:50:16;;;;;;;3.33;0.52;;;12.80;58.00;;;;;;5042685;28;20044;-92
2023/11/07 09:52:45;;;;;;;3.35;0.70;;;12.80;57.90;;;;;;5056671;28;20037;-92
2023/11/07 09:55:16;;;;;;;5.05;0.50;;;12.90;57.30;;;;;;5040822;28;20037;-92
2023/11/07 09:58:01;;;;;;;4.80;0.67;;;12.90;57.40;;;;;;5035758;28;20041;-91
2023/11/07 10:00:45;;;;;;;2.45;0.50;;;13.00;57.60;;;;;;5055107;28;20047;-91
2023/11/07 10:03:13;;;;;;;3.35;0.43;;;13.00;57.10;;;;;;5057186;28;20051;-91
2023/11/07 10:05:44;;;;;;;2.53;0.60;;;13.00;57.10;;;;;;5057069;28;20421;-91
2023/11/07 10:08:11;;;;;;;5.03;0.70;;;13.00;57.60;;;;;;5040016;28;20064;-92
2023/11/07 10:10:39;;;;;;;6.63;1.40;;;13.10;57.90;;;;;;5040695;28;20041;-91
2023/11/07 10:13:11;;;;;;;3.88;0.60;;;13.10;58.00;;;;;;5040726;28;20104;-92
2023/11/07 10:15:39;;;;;;;4.45;0.75;;;13.00;57.70;;;;;;5061540;28;20048;-92
2023/11/07 10:18:10;;;;;;;2.88;0.40;;;13.00;56.00;;;;;;5048692;28;20109;-92
2023/11/07 10:20:50;;;;;;;3.20;0.50;;;13.00;56.30;;;;;;5057004;28;20051;-91
2023/11/07 10:23:21;;;;;;;4.83;0.60;;;13.10;55.90;;;;;;5057162;28;20441;-91
2023/11/07 10:25:49;;;;;;;3.72;0.80;;;13.00;56.00;;;;;;5056902;28;20498;-91
2023/11/07 10:28:21;;;;;;;16.15;7.80;;;13.00;56.40;;;;;;5055544;28;20045;-92
2023/11/07 10:30:49;;;;;;;3.17;0.90;;;13.10;56.10;;;;;;5056668;28;20047;-91
2023/11/07 10:33:28;;;;;;;6.13;1.33;;;13.10;56.40;;;;;;5056432;28;20055;-91
2023/11/07 10:36:01;;;;;;;3.00;0.80;;;13.20;57.20;;;;;;5056778;28;20137;-91
2023/11/07 10:38:30;;;;;;;6.68;2.30;;;13.30;55.90;;;;;;5056529;28;20144;-92
2023/11/07 10:41:01;;;;;;;7.55;2.35;;;13.20;54.60;;;;;;5056540;28;20048;-91
2023/11/07 10:43:40;;;;;;;6.80;1.92;;;13.30;55.10;;;;;;5056920;28;20371;-92
2023/11/07 10:46:11;;;;;;;4.97;1.00;;;13.30;55.00;;;;;;5040001;28;20095;-92
2023/11/07 10:48:40;;;;;;;7.43;1.20;;;13.30;55.10;;;;;;5056415;28;20083;-92
2023/11/07 10:51:11;;;;;;;4.65;0.90;;;13.40;55.00;;;;;;5056098;28;20099;-92
2023/11/07 10:53:41;;;;;;;6.85;1.20;;;13.40;55.50;;;;;;5040124;28;20399;-92
2023/11/07 10:56:20;;;;;;;2.53;0.50;;;13.50;55.80;;;;;;5040040;28;20041;-92
2023/11/07 10:59:01;;;;;;;5.00;0.93;;;13.60;54.80;;;;;;5056678;28;20132;-92
2023/11/07 11:01:33;;;;;;;2.20;0.50;;;13.60;54.70;;;;;;5056343;28;20045;-91
2023/11/07 11:04:02;;;;;;;3.97;0.70;;;13.60;55.50;;;;;;5055705;28;20083;-91
2023/11/07 11:06:31;;;;;;;3.38;0.70;;;13.70;55.60;;;;;;5046062;28;20080;-91
2023/11/07 11:09:10;;;;;;;2.90;0.75;;;13.60;55.60;;;;;;5036546;28;20058;-92
2023/11/07 11:11:41;;;;;;;3.35;0.70;;;13.70;55.50;;;;;;5039700;28;20052;-92
2023/11/07 11:14:08;;;;;;;5.97;0.60;;;13.70;55.70;;;;;;5056109;28;20044;-92
2023/11/07 11:16:38;;;;;;;4.03;0.70;;;13.80;57.10;;;;;;5055919;28;20533;-92
2023/11/07 11:19:30;;;;;;;5.50;0.98;;;13.90;56.80;;;;;;5056110;28;20084;-92
2023/11/07 11:22:52;;;;;;;6.45;0.80;;;13.90;56.20;;;;;;5032802;28;20037;-92
2023/11/07 11:25:26;;;;;;;2.63;0.50;;;14.00;55.10;;;;;;5017085;28;20048;-92
2023/11/07 11:28:05;;;;;;;2.17;0.50;;;14.00;55.70;;;;;;5038595;28;20147;-92
2023/11/07 11:30:37;;;;;;;2.65;0.40;;;14.00;54.90;;;;;;5033409;28;20071;-92
2023/11/07 11:33:08;;;;;;;5.07;0.95;;;14.00;55.30;;;;;;5055695;28;20129;-92
2023/11/07 11:35:40;;;;;;;4.85;0.80;;;14.00;55.40;;;;;;5055553;28;20132;-92
2023/11/07 11:40:56;;;;;;;22.63;8.70;;;14.00;56.10;;;;;;5055741;28;20510;-92
2023/11/07 11:43:25;;;;;;;41.55;16.08;;;14.10;56.60;;;;;;5055389;28;20044;-92
2023/11/07 11:46:02;;;;;;;56.53;20.60;;;14.10;55.50;;;;;;5035461;28;20046;-92
2023/11/07 11:48:50;;;;;;;22.20;7.32;;;14.10;55.30;;;;;;5033188;28;20048;-92
2023/11/07 11:51:32;;;;;;;5.28;1.33;;;14.10;55.60;;;;;;5055569;28;20491;-92
2023/11/07 11:53:59;;;;;;;4.40;0.67;;;14.20;56.50;;;;;;5055338;28;20049;-92
2023/11/07 11:56:28;;;;;;;4.75;0.85;;;14.20;54.70;;;;;;5055301;28;20037;-92
2023/11/07 11:59:15;;;;;;;4.10;0.98;;;14.10;54.30;;;;;;5055206;28;20041;-92
2023/11/07 12:01:58;;;;;;;5.22;1.42;;;14.10;54.20;;;;;;5055312;28;20052;-92
2023/11/07 12:04:29;;;;;;;4.18;0.60;;;14.20;54.80;;;;;;5051981;28;20063;-92
2023/11/07 12:07:06;;;;;;;3.20;1.00;;;14.20;54.40;;;;;;5054950;28;20048;-92
2023/11/07 12:09:38;;;;;;;8.90;3.40;;;14.20;54.50;;;;;;5055060;28;20079;-92
2023/11/07 12:12:07;;;;;;;5.40;1.10;;;14.10;54.50;;;;;;5055019;28;20552;-92
2023/11/07 12:14:57;;;;;;;5.05;0.70;;;14.20;55.00;;;;;;5054020;28;20052;-92
2023/11/07 12:17:28;;;;;;;2.30;0.57;;;14.20;53.70;;;;;;5054675;28;20127;-91
2023/11/07 12:20:08;;;;;;;3.10;0.67;;;14.10;53.50;;;;;;5054858;28;20049;-91
2023/11/07 12:22:36;;;;;;;4.68;0.60;;;14.20;54.10;;;;;;5038636;28;20111;-92
2023/11/07 12:25:16;;;;;;;3.83;0.63;;;14.30;54.10;;;;;;5037475;28;20053;-92
2023/11/07 12:28:01;;;;;;;3.28;0.80;;;14.40;53.60;;;;;;5054523;28;20140;-92
2023/11/07 12:30:33;;;;;;;4.72;0.90;;;14.40;53.20;;;;;;5054731;28;20103;-92
2023/11/07 12:33:03;;;;;;;3.97;0.90;;;14.30;53.30;;;;;;5054526;28;20045;-91
2023/11/07 12:35:31;;;;;;;4.55;0.90;;;14.30;53.00;;;;;;5038100;28;20048;-93
2023/11/07 12:38:06;;;;;;;4.20;0.80;;;14.30;53.20;;;;;;5037681;28;20041;-92
2023/11/07 12:40:35;;;;;;;4.15;0.90;;;14.30;53.80;;;;;;5038079;28;20049;-92
2023/11/07 12:43:08;;;;;;;3.17;0.80;;;14.30;53.50;;;;;;5037799;28;20499;-92
2023/11/07 12:45:37;;;;;;;3.63;0.80;;;14.20;53.20;;;;;;5054480;28;20044;-91
2023/11/07 12:48:15;;;;;;;4.10;0.90;;;14.30;53.10;;;;;;5036244;28;20057;-92
2023/11/07 12:50:44;;;;;;;4.93;1.10;;;14.30;53.70;;;;;;5037712;28;20049;-92
2023/11/07 12:53:12;;;;;;;4.03;1.10;;;14.30;53.80;;;;;;5038103;28;20042;-92
2023/11/07 12:55:48;;;;;;;4.20;1.02;;;14.30;53.70;;;;;;5037995;28;20048;-92
2023/11/07 12:58:26;;;;;;;4.50;1.00;;;14.40;54.10;;;;;;5054033;28;20051;-92
2023/11/07 13:00:58;;;;;;;5.90;1.08;;;14.40;53.80;;;;;;5054243;28;20521;-91
2023/11/07 13:03:31;;;;;;;4.97;1.20;;;14.50;53.70;;;;;;5037565;28;20052;-92